Time;durP1;ratioP1;P1;durP2;ratioP2;P2;SDS_P1;SDS_P2;PMS_P1;PMS_P2;Temp;Humidity;BMP_temperature;BMP_pressure;BME280_temperature;BME280_humidity;BME280_pressure;Samples;Min_cycle;Max_cycle;Signal;HPM_P1;HPM_P2
2021/04/25 00:02:08;;;;;;;21.42;7.33;;;;;;;0.72;100.00;101576.69;1779931;80;21069;-85
2021/04/25 00:04:34;;;;;;;17.57;7.53;;;;;;;0.69;100.00;101573.88;1779807;80;21205;-86
2021/04/25 00:07:00;;;;;;;20.15;7.60;;;;;;;0.64;100.00;101570.39;1780032;80;21612;-86
2021/04/25 00:09:25;;;;;;;23.85;8.05;;;;;;;0.63;100.00;101574.56;1779928;80;21254;-85
2021/04/25 00:11:51;;;;;;;21.23;7.22;;;;;;;0.60;100.00;101570.42;1779826;80;20978;-85
2021/04/25 00:14:17;;;;;;;17.87;7.50;;;;;;;0.58;100.00;101577.71;1779992;80;21581;-85
2021/04/25 00:16:43;;;;;;;20.85;7.70;;;;;;;0.57;100.00;101567.29;1749353;80;21073;-85
2021/04/25 00:19:09;;;;;;;17.17;7.40;;;;;;;0.56;100.00;101573.09;1780026;80;21045;-85
2021/04/25 00:21:35;;;;;;;19.90;7.87;;;;;;;0.48;100.00;101566.98;1780012;80;21240;-85
2021/04/25 00:24:01;;;;;;;24.87;8.68;;;;;;;0.44;100.00;101568.65;1779846;80;20970;-85
2021/04/25 00:26:28;;;;;;;22.32;7.95;;;;;;;0.41;100.00;101568.98;1780106;80;21113;-86
2021/04/25 00:28:54;;;;;;;25.30;8.75;;;;;;;0.33;100.00;101571.64;1780114;80;21058;-85
2021/04/25 00:31:20;;;;;;;23.42;8.03;;;;;;;0.30;100.00;101575.14;1780057;80;21487;-86
2021/04/25 00:33:46;;;;;;;21.20;7.80;;;;;;;0.28;100.00;101575.28;1780910;80;21236;-85
2021/04/25 00:36:12;;;;;;;22.65;8.28;;;;;;;0.21;100.00;101586.24;1785505;79;21671;-86
2021/04/25 00:38:38;;;;;;;25.30;8.60;;;;;;;0.17;100.00;101580.92;1780735;80;21013;-85
2021/04/25 00:41:06;;;;;;;23.55;8.70;;;;;;;0.17;100.00;101584.91;1785541;79;21188;-85
2021/04/25 00:43:34;;;;;;;21.65;8.30;;;;;;;0.18;100.00;101581.28;1785473;79;21109;-86
2021/04/25 00:46:01;;;;;;;21.52;7.45;;;;;;;0.20;100.00;101577.94;1785646;79;21229;-86
2021/04/25 00:48:27;;;;;;;22.45;7.97;;;;;;;0.17;100.00;101583.08;1785509;80;21184;-86
2021/04/25 00:50:53;;;;;;;22.55;8.55;;;;;;;0.15;100.00;101574.98;1757344;80;21549;-85
2021/04/25 00:53:21;;;;;;;25.80;7.70;;;;;;;0.15;100.00;101575.81;1785502;79;21604;-85
2021/04/25 00:55:50;;;;;;;25.75;9.40;;;;;;;0.17;100.00;101577.77;1785599;79;21167;-86
2021/04/25 00:58:17;;;;;;;29.37;10.40;;;;;;;0.17;100.00;101571.65;1785595;79;21382;-85
2021/04/25 01:00:43;;;;;;;29.45;10.20;;;;;;;0.18;100.00;101565.37;1785214;80;21132;-86
2021/04/25 01:03:09;;;;;;;26.27;10.03;;;;;;;0.17;100.00;101564.52;1785644;79;21147;-86
2021/04/25 01:05:36;;;;;;;33.48;10.53;;;;;;;0.20;100.00;101569.98;1785479;79;20954;-87
2021/04/25 01:08:02;;;;;;;30.30;9.80;;;;;;;0.22;100.00;101570.16;1785574;80;21109;-87
2021/04/25 01:10:28;;;;;;;33.60;9.38;;;;;;;0.22;100.00;101571.48;1785556;79;21244;-85
2021/04/25 01:12:55;;;;;;;28.77;9.40;;;;;;;0.27;100.00;101564.36;1785502;80;21148;-86
2021/04/25 01:15:22;;;;;;;29.30;9.88;;;;;;;0.29;100.00;101571.63;1785506;79;21097;-85
2021/04/25 01:17:49;;;;;;;31.40;10.00;;;;;;;0.33;100.00;101572.14;1785535;80;21141;-86
2021/04/25 01:20:19;;;;;;;31.07;9.60;;;;;;;0.30;100.00;101572.48;1785450;79;21656;-86
2021/04/25 01:22:45;;;;;;;28.05;9.70;;;;;;;0.29;100.00;101568.16;1785526;79;21345;-86
2021/04/25 01:25:15;;;;;;;30.70;9.98;;;;;;;0.22;100.00;101562.20;1785504;79;21160;-86
2021/04/25 01:27:41;;;;;;;25.90;8.93;;;;;;;0.25;100.00;101564.20;1785612;79;21157;-86
2021/04/25 01:30:11;;;;;;;29.65;8.73;;;;;;;0.23;100.00;101562.52;1785537;79;21096;-87
2021/04/25 01:32:40;;;;;;;25.90;9.05;;;;;;;0.23;100.00;101566.50;1785512;79;21180;-86
2021/04/25 01:35:08;;;;;;;33.05;10.50;;;;;;;0.23;100.00;101561.70;1784210;80;21192;-86
2021/04/25 01:37:34;;;;;;;31.95;9.88;;;;;;;0.23;100.00;101559.05;1783330;80;21494;-85
2021/04/25 01:40:00;;;;;;;31.12;9.53;;;;;;;0.21;100.00;101561.06;1784025;80;21028;-86
2021/04/25 01:42:26;;;;;;;29.20;9.60;;;;;;;0.16;100.00;101570.83;1783120;80;21108;-86
2021/04/25 01:44:52;;;;;;;34.20;9.88;;;;;;;0.12;100.00;101564.22;1783278;80;21126;-86
2021/04/25 01:47:18;;;;;;;27.60;9.20;;;;;;;0.13;100.00;101570.34;1783230;80;21182;-86
2021/04/25 01:49:44;;;;;;;32.45;10.03;;;;;;;0.11;100.00;101565.70;1783416;80;21010;-86
2021/04/25 01:52:10;;;;;;;27.02;9.25;;;;;;;0.11;100.00;101565.19;1783280;80;21014;-85
2021/04/25 01:54:35;;;;;;;30.57;9.75;;;;;;;0.11;100.00;101567.84;1783302;80;21013;-86
2021/04/25 01:57:02;;;;;;;29.30;9.68;;;;;;;0.11;100.00;101571.00;1783376;80;20962;-86
2021/04/25 01:59:27;;;;;;;28.38;9.33;;;;;;;0.10;100.00;101573.33;1783329;80;21180;-86
2021/04/25 02:01:53;;;;;;;26.87;9.00;;;;;;;0.09;100.00;101569.85;1783079;80;20990;-87
2021/04/25 02:04:20;;;;;;;26.23;9.13;;;;;;;0.09;100.00;101571.65;1783261;80;20926;-86
2021/04/25 02:06:46;;;;;;;24.20;8.85;;;;;;;0.08;100.00;101571.33;1783299;80;21047;-87
2021/04/25 02:09:13;;;;;;;26.30;8.68;;;;;;;0.06;100.00;101570.66;1783486;80;20942;-87
2021/04/25 02:11:39;;;;;;;22.90;8.03;;;;;;;0.00;100.00;101570.86;1757113;80;21117;-86
2021/04/25 02:14:06;;;;;;;28.95;9.00;;;;;;;-0.03;100.00;101570.69;1783240;80;21566;-88
2021/04/25 02:16:33;;;;;;;30.82;8.70;;;;;;;-0.02;100.00;101575.48;1757191;80;21255;-87
2021/04/25 02:19:00;;;;;;;30.55;8.25;;;;;;;0.02;100.00;101571.49;1783135;80;21197;-88
2021/04/25 02:21:26;;;;;;;26.85;9.30;;;;;;;0.07;100.00;101571.83;1783073;80;21578;-87
2021/04/25 02:23:54;;;;;;;35.38;8.95;;;;;;;0.11;100.00;101577.62;1783168;80;21460;-87
2021/04/25 02:26:20;;;;;;;24.12;8.55;;;;;;;0.16;100.00;101577.95;1783155;80;21117;-88
2021/04/25 02:28:46;;;;;;;27.13;8.55;;;;;;;0.17;100.00;101580.92;1783147;80;21045;-87
2021/04/25 02:31:12;;;;;;;27.80;8.30;;;;;;;0.18;100.00;101579.45;1783073;80;21196;-87
2021/04/25 02:33:38;;;;;;;23.67;8.48;;;;;;;0.20;100.00;101581.91;1783226;80;21118;-86
2021/04/25 02:36:06;;;;;;;32.38;9.28;;;;;;;0.22;100.00;101579.94;1780286;80;21250;-87
2021/04/25 02:38:32;;;;;;;29.07;8.35;;;;;;;0.24;100.00;101587.23;1779879;80;21133;-87
2021/04/25 02:40:58;;;;;;;26.25;7.80;;;;;;;0.27;100.00;101588.73;1779964;80;21010;-87
2021/04/25 02:43:24;;;;;;;24.15;7.58;;;;;;;0.29;100.00;101592.02;1779963;80;21065;-88
2021/04/25 02:45:51;;;;;;;34.18;8.65;;;;;;;0.31;100.00;101592.19;1779956;80;21148;-87
2021/04/25 02:48:17;;;;;;;29.95;9.00;;;;;;;0.33;100.00;101591.52;1779942;80;21140;-86
2021/04/25 02:50:44;;;;;;;27.02;8.50;;;;;;;0.37;100.00;101594.66;1779852;80;21112;-87
2021/04/25 02:53:11;;;;;;;26.97;8.98;;;;;;;0.42;100.00;101591.84;1779850;80;21105;-87
2021/04/25 02:55:38;;;;;;;28.15;8.28;;;;;;;0.45;100.00;101590.18;1779917;80;21094;-87
2021/04/25 02:58:06;;;;;;;31.42;8.13;;;;;;;0.55;100.00;101592.63;1779791;80;21109;-87
2021/04/25 03:00:32;;;;;;;30.37;9.05;;;;;;;0.62;100.00;101592.30;1779891;80;21971;-87
2021/04/25 03:02:59;;;;;;;25.15;8.50;;;;;;;0.71;100.00;101590.46;1779864;80;21157;-87
2021/04/25 03:05:27;;;;;;;26.48;8.70;;;;;;;0.80;100.00;101592.59;1779991;80;21447;-87
2021/04/25 03:07:53;;;;;;;27.42;9.10;;;;;;;0.93;100.00;101594.19;1779965;80;21045;-86
2021/04/25 03:10:21;;;;;;;34.08;9.03;;;;;;;1.08;100.00;101601.75;1749375;80;21191;-87
2021/04/25 03:12:47;;;;;;;28.92;8.63;;;;;;;1.21;100.00;101603.88;1779832;80;21243;-87
2021/04/25 03:15:15;;;;;;;25.15;7.97;;;;;;;1.36;100.00;101607.45;1779890;80;21054;-87
2021/04/25 03:17:41;;;;;;;25.68;8.85;;;;;;;1.50;100.00;101603.70;1779885;80;21656;-87
2021/04/25 03:20:10;;;;;;;28.12;9.33;;;;;;;1.62;100.00;101607.64;1779923;80;20911;-87
2021/04/25 03:22:36;;;;;;;27.45;8.90;;;;;;;1.84;100.00;101609.16;1780038;80;21117;-86
2021/04/25 03:25:07;;;;;;;24.65;7.58;;;;;;;2.03;100.00;101610.02;1779835;80;21114;-87
2021/04/25 03:27:34;;;;;;;25.60;8.20;;;;;;;2.13;100.00;101607.10;1779915;80;21661;-86
2021/04/25 03:30:00;;;;;;;27.95;8.73;;;;;;;2.35;100.00;101616.04;1779868;80;21148;-87
2021/04/25 03:32:26;;;;;;;22.77;7.97;;;;;;;2.53;100.00;101615.70;1779828;80;21144;-87
2021/04/25 03:34:52;;;;;;;29.30;8.13;;;;;;;2.76;100.00;101613.80;1779820;80;21657;-87
2021/04/25 03:37:18;;;;;;;23.70;9.03;;;;;;;3.07;100.00;101624.27;1779881;80;21155;-87
2021/04/25 03:39:44;;;;;;;27.20;9.43;;;;;;;3.63;100.00;101623.72;1779715;80;21009;-86
2021/04/25 03:42:10;;;;;;;27.37;9.03;;;;;;;4.58;100.00;101623.03;1779838;80;21640;-86
2021/04/25 03:44:36;;;;;;;27.58;8.95;;;;;;;5.61;100.00;101627.45;1779923;80;21402;-86
2021/04/25 03:47:02;;;;;;;25.27;8.18;;;;;;;6.74;100.00;101622.22;1779992;80;21721;-85
2021/04/25 03:49:28;;;;;;;25.65;8.68;;;;;;;8.08;100.00;101617.06;1779957;80;21278;-85
2021/04/25 03:51:55;;;;;;;27.82;9.08;;;;;;;9.35;100.00;101629.58;1779942;80;20883;-85
2021/04/25 03:54:22;;;;;;;23.32;8.55;;;;;;;10.32;100.00;101629.99;1779887;80;21065;-85
2021/04/25 03:56:48;;;;;;;18.77;8.30;;;;;;;11.32;99.17;101623.08;1779904;80;21164;-86
2021/04/25 03:59:14;;;;;;;21.05;8.50;;;;;;;12.32;88.81;101629.47;1780036;80;21555;-86
2021/04/25 04:01:42;;;;;;;19.70;7.67;;;;;;;13.60;91.46;101631.50;1780116;80;22085;-86
2021/04/25 04:04:08;;;;;;;21.57;8.18;;;;;;;14.61;74.87;101631.87;1780049;80;21124;-86
2021/04/25 04:06:34;;;;;;;16.93;7.50;;;;;;;15.72;65.56;101634.02;1780105;80;20939;-86
2021/04/25 04:09:00;;;;;;;15.98;7.35;;;;;;;16.24;50.08;101637.89;1779962;80;20938;-86
2021/04/25 04:11:26;;;;;;;15.32;7.47;;;;;;;17.19;56.77;101635.81;1780188;80;21100;-87
2021/04/25 04:13:52;;;;;;;18.60;7.78;;;;;;;18.04;53.00;101634.01;1780247;80;21239;-87
2021/04/25 04:16:18;;;;;;;19.62;8.23;;;;;;;18.64;51.68;101642.75;1780136;80;21671;-87
2021/04/25 04:18:45;;;;;;;18.23;7.72;;;;;;;19.09;47.80;101642.03;1780196;80;21049;-87
2021/04/25 04:21:11;;;;;;;16.32;7.40;;;;;;;19.57;45.51;101645.25;1780068;80;21105;-87
2021/04/25 04:23:38;;;;;;;13.65;6.83;;;;;;;20.07;41.08;101636.86;1779933;80;21114;-88
2021/04/25 04:26:04;;;;;;;12.63;6.22;;;;;;;20.15;43.06;101643.59;1742983;81;21198;-88
2021/04/25 04:28:30;;;;;;;15.03;6.17;;;;;;;21.18;39.44;101638.41;1742951;81;21021;-87
2021/04/25 04:30:56;;;;;;;14.18;5.85;;;;;;;21.38;39.13;101642.70;1743101;81;21192;-88
2021/04/25 04:33:22;;;;;;;14.18;5.33;;;;;;;21.12;36.87;101638.27;1743118;81;21092;-88
2021/04/25 04:35:48;;;;;;;10.28;4.90;;;;;;;20.45;32.57;101641.45;1750148;81;21631;-88
2021/04/25 04:38:14;;;;;;;11.18;4.92;;;;;;;20.97;37.29;101640.77;1756991;81;21316;-88
2021/04/25 04:40:40;;;;;;;8.88;4.62;;;;;;;21.28;34.28;101639.59;1756877;81;21173;-88
2021/04/25 04:43:06;;;;;;;11.53;5.22;;;;;;;21.86;36.69;101639.45;1756873;81;21064;-86
2021/04/25 04:45:32;;;;;;;10.85;5.15;;;;;;;21.87;30.98;101639.69;1756842;81;21457;-87
2021/04/25 04:47:58;;;;;;;22.98;6.95;;;;;;;22.69;33.22;101641.21;1756851;81;21596;-87
2021/04/25 04:50:24;;;;;;;9.43;4.72;;;;;;;23.01;34.13;101634.58;1756816;81;21229;-88
2021/04/25 04:52:49;;;;;;;12.73;5.55;;;;;;;23.53;33.70;101634.70;1756808;81;21151;-87
2021/04/25 04:55:16;;;;;;;12.88;5.25;;;;;;;24.58;31.31;101636.00;1756968;81;20973;-88
2021/04/25 04:57:42;;;;;;;13.58;4.72;;;;;;;23.98;31.99;101634.97;1756821;81;21251;-87
2021/04/25 05:00:10;;;;;;;12.05;5.10;;;;;;;25.05;29.48;101632.62;1757145;81;21388;-88
2021/04/25 05:02:36;;;;;;;8.35;5.28;;;;;;;24.69;30.13;101635.88;1731873;81;21307;-89
2021/04/25 05:05:03;;;;;;;11.85;5.20;;;;;;;23.76;29.71;101649.12;1756785;81;21132;-89
2021/04/25 05:07:29;;;;;;;12.13;4.47;;;;;;;24.07;30.02;101637.14;1756875;81;21746;-89
2021/04/25 05:09:55;;;;;;;7.70;4.22;;;;;;;23.26;27.31;101641.27;1757026;81;20942;-87
2021/04/25 05:12:20;;;;;;;9.00;4.17;;;;;;;23.70;26.61;101646.86;1757273;81;21036;-87
2021/04/25 05:14:47;;;;;;;9.83;4.40;;;;;;;24.00;29.27;101633.51;1758084;81;20997;-87
2021/04/25 05:17:12;;;;;;;5.92;4.08;;;;;;;25.06;29.01;101635.63;1758522;81;21219;-86
2021/04/25 05:19:38;;;;;;;4.85;3.37;;;;;;;24.98;25.11;101630.16;1758411;81;21028;-88
2021/04/25 05:22:04;;;;;;;6.70;3.72;;;;;;;25.41;27.63;101636.81;1761605;80;20926;-87
2021/04/25 05:24:30;;;;;;;6.85;3.65;;;;;;;25.88;27.51;101626.97;1789209;80;21220;-87
2021/04/25 05:26:56;;;;;;;8.33;3.70;;;;;;;26.32;27.39;101623.78;1789224;80;21639;-88
2021/04/25 05:29:22;;;;;;;7.55;3.33;;;;;;;27.15;26.31;101626.80;1788981;80;21360;-88
2021/04/25 05:31:48;;;;;;;5.35;3.33;;;;;;;26.82;25.16;101610.27;1762541;80;20938;-90
2021/04/25 05:34:14;;;;;;;6.17;3.37;;;;;;;27.46;25.53;101627.53;1789048;80;20943;-91
2021/04/25 05:36:40;;;;;;;7.37;3.20;;;;;;;27.45;23.00;101631.46;1781957;80;20970;-90
2021/04/25 05:39:06;;;;;;;4.97;2.70;;;;;;;26.90;23.25;101626.76;1780109;80;21893;-90
2021/04/25 05:41:33;;;;;;;6.75;3.22;;;;;;;27.21;22.63;101628.17;1779955;80;21164;-93
2021/04/25 05:43:59;;;;;;;7.85;2.80;;;;;;;26.73;23.88;101626.98;1749486;80;21100;-93
2021/04/25 05:46:25;;;;;;;4.70;2.87;;;;;;;27.75;23.07;101628.38;1780034;80;21183;-91
2021/04/25 05:48:54;;;;;;;2.80;2.15;;;;;;;27.75;23.57;101627.79;1779853;80;21120;-90
2021/04/25 05:51:20;;;;;;;3.77;2.25;;;;;;;28.88;22.03;101618.72;1780132;80;21977;-93
2021/04/25 05:53:46;;;;;;;5.60;2.12;;;;;;;26.05;21.81;101626.80;1779975;80;20986;-92
2021/04/25 05:56:12;;;;;;;3.77;2.50;;;;;;;28.13;21.97;101618.19;1780121;80;21014;-90
2021/04/25 05:58:38;;;;;;;5.15;2.30;;;;;;;27.79;22.59;101617.63;1780403;80;20915;-90
2021/04/25 06:01:04;;;;;;;3.20;2.20;;;;;;;28.59;21.69;101613.08;1780294;80;21146;-90
2021/04/25 06:03:31;;;;;;;3.75;2.47;;;;;;;28.26;21.15;101612.78;1775310;80;21168;-92
2021/04/25 06:05:57;;;;;;;4.95;2.52;;;;;;;27.83;20.23;101613.60;1780305;80;21124;-90
2021/04/25 06:08:23;;;;;;;3.00;2.12;;;;;;;26.36;21.47;101617.81;1780386;80;21159;-90
2021/04/25 06:10:49;;;;;;;3.10;2.10;;;;;;;26.98;20.49;101626.42;1780277;80;21610;-91
2021/04/25 06:13:15;;;;;;;4.60;2.22;;;;;;;28.13;20.70;101622.92;1779938;80;20986;-91
2021/04/25 06:15:41;;;;;;;3.30;2.27;;;;;;;28.29;21.30;101622.36;1779956;80;21897;-91
2021/04/25 06:18:07;;;;;;;3.15;2.30;;;;;;;28.50;18.65;101621.58;1779905;80;21168;-92
2021/04/25 06:20:33;;;;;;;3.58;2.42;;;;;;;28.74;20.15;101626.13;1780071;80;21014;-91
2021/04/25 06:22:59;;;;;;;4.08;2.08;;;;;;;28.47;18.38;101617.30;1780088;80;21715;-91
2021/04/25 06:25:26;;;;;;;2.95;1.98;;;;;;;29.35;17.71;101617.83;1749472;80;21188;-90
2021/04/25 06:27:52;;;;;;;3.83;2.00;;;;;;;29.46;16.90;101615.88;1779854;80;21211;-91
2021/04/25 06:30:20;;;;;;;5.00;2.08;;;;;;;29.32;18.91;101621.34;1779900;80;21066;-92
2021/04/25 06:32:47;;;;;;;3.67;1.60;;;;;;;30.12;19.00;101623.20;1779937;80;21569;-92
2021/04/25 06:35:14;;;;;;;3.83;1.90;;;;;;;28.30;16.80;101622.60;1779875;80;21189;-91
2021/04/25 06:37:42;;;;;;;4.53;1.90;;;;;;;29.63;18.78;101619.06;1779981;80;21177;-92
2021/04/25 06:40:11;;;;;;;5.53;1.82;;;;;;;30.36;16.75;101619.89;1779931;80;21554;-91
2021/04/25 06:42:39;;;;;;;3.62;1.90;;;;;;;29.81;18.68;101624.98;1779930;80;21164;-92
2021/04/25 06:45:09;;;;;;;2.27;1.72;;;;;;;28.24;18.02;101616.51;1779982;80;21510;-90
2021/04/25 06:47:35;;;;;;;4.62;2.00;;;;;;;28.12;16.25;101629.61;1736988;82;21211;-85
2021/04/25 06:50:01;;;;;;;2.35;2.10;;;;;;;27.84;16.55;101636.78;1741239;82;21027;-87
2021/04/25 06:52:27;;;;;;;4.55;1.92;;;;;;;29.43;16.91;101627.94;1741032;82;21937;-87
2021/04/25 06:54:52;;;;;;;3.72;1.90;;;;;;;28.63;17.16;101627.03;1726557;82;21149;-87
2021/04/25 06:57:18;;;;;;;2.90;2.00;;;;;;;30.55;16.62;101623.39;1740905;82;21021;-88
2021/04/25 06:59:44;;;;;;;3.90;2.00;;;;;;;29.72;16.36;101631.35;1740981;82;21074;-87
2021/04/25 07:02:10;;;;;;;3.12;2.10;;;;;;;29.60;15.42;101622.55;1741263;82;20931;-87
2021/04/25 07:04:38;;;;;;;5.95;2.00;;;;;;;29.52;16.96;101626.33;1741639;82;21288;-87
2021/04/25 07:07:04;;;;;;;2.87;2.10;;;;;;;28.81;17.56;101627.47;1741172;82;21224;-86
2021/04/25 07:09:29;;;;;;;2.45;1.95;;;;;;;29.23;16.73;101627.68;1740968;82;21216;-86
2021/04/25 07:12:00;;;;;;;2.15;1.62;;;;;;;30.47;16.56;101618.91;1741123;82;20934;-85
2021/04/25 07:14:26;;;;;;;3.27;1.98;;;;;;;30.85;16.47;101622.70;1690359;84;21271;-85
2021/04/25 07:16:52;;;;;;;2.08;1.82;;;;;;;30.05;15.92;101623.05;1690344;84;21231;-85
2021/04/25 07:19:17;;;;;;;6.17;2.05;;;;;;;29.80;14.57;101629.53;1690402;84;20953;-86
2021/04/25 07:21:43;;;;;;;3.58;2.20;;;;;;;30.61;16.09;101632.83;1690401;84;20976;-86
2021/04/25 07:24:09;;;;;;;2.95;2.00;;;;;;;29.46;15.44;101629.77;1690277;84;21068;-86
2021/04/25 07:26:35;;;;;;;2.72;1.70;;;;;;;31.07;15.15;101621.66;1690503;84;21688;-86
2021/04/25 07:29:02;;;;;;;4.37;1.90;;;;;;;31.13;15.98;101622.34;1690011;84;21386;-85
2021/04/25 07:31:28;;;;;;;4.17;2.50;;;;;;;31.30;16.43;101626.56;1690241;84;21159;-85
2021/04/25 07:33:54;;;;;;;3.98;2.37;;;;;;;31.34;16.25;101617.66;1690200;84;21215;-85
2021/04/25 07:36:20;;;;;;;3.67;2.40;;;;;;;32.21;15.68;101620.89;1693277;84;21100;-85
2021/04/25 07:38:46;;;;;;;3.25;2.30;;;;;;;31.56;14.46;101617.38;1698043;84;21073;-85
2021/04/25 07:41:12;;;;;;;2.37;2.17;;;;;;;31.04;16.61;101616.24;1697939;84;21339;-85
2021/04/25 07:43:38;;;;;;;6.25;2.10;;;;;;;31.85;16.53;101612.13;1712400;83;21187;-85
2021/04/25 07:46:05;;;;;;;4.25;2.35;;;;;;;31.06;16.62;101609.72;1697972;84;21151;-86
2021/04/25 07:48:54;;;;;;;;;;;;;;;;;;;;;
2021/04/25 07:51:18;;;;;;;5.60;2.58;;;;;;;32.58;15.83;101604.91;1522772;94;21312;-86
2021/04/25 07:56:31;;;;;;;4.05;2.30;;;;;;;32.17;15.69;101607.52;1491929;96;20327;-86
2021/04/25 07:58:57;;;;;;;4.70;2.00;;;;;;;31.30;15.29;101611.84;1492295;96;21005;-88
2021/04/25 08:01:24;;;;;;;4.33;2.55;;;;;;;32.79;15.10;101596.49;1492309;96;21115;-86
2021/04/25 08:03:51;;;;;;;3.92;2.45;;;;;;;31.93;14.82;101606.08;1473044;96;21816;-86
2021/04/25 08:06:16;;;;;;;4.75;2.12;;;;;;;32.71;15.40;101606.00;1457592;98;21248;-87
2021/04/25 08:08:42;;;;;;;2.65;2.20;;;;;;;32.71;15.40;101606.00;1457517;97;21029;-88
2021/04/25 08:11:08;;;;;;;3.40;2.08;;;;;;;31.40;14.63;101612.59;1457507;98;21012;-88
2021/04/25 08:13:34;;;;;;;7.47;2.33;;;;;;;31.94;14.95;101602.09;1457560;98;21103;-87
2021/04/25 08:16:00;;;;;;;3.35;1.95;;;;;;;32.43;14.96;101593.41;1457505;98;20992;-88
2021/04/25 08:18:26;;;;;;;2.87;1.87;;;;;;;31.79;14.85;101592.74;1440052;97;21131;-90
2021/04/25 08:20:52;;;;;;;3.15;2.20;;;;;;;29.90;15.89;101595.58;1457279;98;21126;-88
2021/04/25 08:23:18;;;;;;;2.50;2.20;;;;;;;30.38;14.43;101591.89;1483741;96;21036;-87
2021/04/25 08:25:44;;;;;;;8.45;2.45;;;;;;;32.15;14.88;101581.98;1468379;96;21261;-89
2021/04/25 08:28:10;;;;;;;5.40;1.98;;;;;;;31.07;15.02;101587.64;1501021;93;21128;-88
2021/04/25 08:30:36;;;;;;;2.67;1.70;;;;;;;31.50;14.35;101577.08;1557509;90;21278;-87
2021/04/25 08:33:03;;;;;;;3.10;2.00;;;;;;;29.06;15.03;101578.94;1588977;90;21092;-87
2021/04/25 08:35:29;;;;;;;7.00;1.87;;;;;;;29.71;13.75;101574.18;1584843;90;21355;-88
2021/04/25 08:37:55;;;;;;;3.60;2.33;;;;;;;29.10;15.44;101579.02;1589048;90;21289;-88
2021/04/25 08:40:22;;;;;;;3.35;1.80;;;;;;;31.00;14.70;101571.64;1585968;90;21173;-88
2021/04/25 08:42:48;;;;;;;2.05;1.70;;;;;;;29.93;14.73;101569.02;1589361;90;21208;-88
2021/04/25 08:45:15;;;;;;;4.47;2.00;;;;;;;28.25;14.59;101574.34;1589262;90;21592;-87
2021/04/25 08:47:55;;;;;;;2.65;1.80;;;;;;;28.67;15.12;101559.95;1610128;87;21691;-87
2021/04/25 08:50:25;;;;;;;5.08;1.85;;;;;;;28.76;15.32;101551.64;1608476;86;21899;-88
2021/04/25 08:52:51;;;;;;;2.98;1.82;;;;;;;30.31;14.90;101552.25;1583612;90;21206;-87
2021/04/25 08:55:17;;;;;;;3.22;1.82;;;;;;;31.09;14.16;101558.02;1582915;90;21270;-87
2021/04/25 08:57:44;;;;;;;2.35;2.10;;;;;;;31.80;14.03;101549.77;1582852;90;21396;-87
2021/04/25 09:00:11;;;;;;;3.35;1.67;;;;;;;31.37;13.69;101550.06;1583046;90;21262;-87
2021/04/25 09:02:37;;;;;;;7.60;1.95;;;;;;;31.26;14.10;101552.47;1582942;90;21675;-87
2021/04/25 09:05:05;;;;;;;5.33;2.00;;;;;;;31.74;13.50;101545.12;1582963;90;21175;-87
2021/04/25 09:07:31;;;;;;;5.15;1.65;;;;;;;29.99;14.81;101557.22;1583039;90;22327;-88
2021/04/25 09:10:08;;;;;;;3.20;1.60;;;;;;;27.08;14.86;101567.03;1582955;90;21013;-88
2021/04/25 09:12:43;;;;;;;2.70;1.65;;;;;;;27.08;14.86;101567.03;1582968;90;21204;-88
2021/04/25 09:15:20;;;;;;;2.62;1.57;;;;;;;23.28;17.16;101549.61;1582844;90;21191;-87
2021/04/25 09:17:58;;;;;;;5.05;1.70;;;;;;;24.03;18.01;101541.98;1582895;90;21232;-88
2021/04/25 09:20:46;;;;;;;3.85;1.60;;;;;;;24.42;17.78;101539.25;1582848;90;22076;-87
2021/04/25 09:23:25;;;;;;;3.05;1.50;;;;;;;25.77;17.80;101532.67;1582952;90;21231;-85
2021/04/25 09:26:03;;;;;;;3.33;1.45;;;;;;;25.46;16.54;101535.06;1582972;90;21258;-85
2021/04/25 09:28:30;;;;;;;2.85;1.40;;;;;;;26.87;16.41;101522.91;1598923;89;21267;-84
2021/04/25 09:31:02;;;;;;;3.17;1.50;;;;;;;27.72;15.80;101509.97;1601551;89;21652;-86
2021/04/25 09:33:51;;;;;;;2.12;1.55;;;;;;;27.63;15.72;101519.23;1523969;94;22377;-85
2021/04/25 09:36:21;;;;;;;2.72;1.55;;;;;;;25.92;15.48;101529.86;1493589;95;21158;-89
2021/04/25 09:38:52;;;;;;;2.72;1.37;;;;;;;25.15;15.97;101514.23;1493682;96;21192;-86
2021/04/25 09:41:29;;;;;;;3.80;1.35;;;;;;;23.88;16.76;101509.44;1468300;96;21231;-86
2021/04/25 09:43:55;;;;;;;3.15;1.30;;;;;;;23.67;16.87;101503.78;1485410;96;21240;-85
2021/04/25 09:46:21;;;;;;;2.22;1.30;;;;;;;24.02;18.44;101507.87;1485331;96;22025;-85
2021/04/25 09:48:48;;;;;;;2.58;1.60;;;;;;;25.04;17.63;101511.02;1485433;96;21047;-85
2021/04/25 09:51:26;;;;;;;4.62;1.40;;;;;;;24.91;17.63;101507.39;1485452;96;21263;-87
2021/04/25 09:53:57;;;;;;;2.95;1.30;;;;;;;24.21;17.36;101501.98;1485439;95;21243;-88
2021/04/25 09:56:37;;;;;;;4.28;1.55;;;;;;;24.23;18.37;101506.00;1486738;96;21091;-85
2021/04/25 09:59:08;;;;;;;4.85;1.40;;;;;;;24.77;17.48;101499.94;1542446;93;21801;-86
2021/04/25 10:01:41;;;;;;;4.08;1.47;;;;;;;23.74;17.59;101497.83;1542319;93;21267;-86
2021/04/25 10:04:36;;;;;;;2.27;1.10;;;;;;;23.54;17.87;101489.66;1542524;93;26532;-86
2021/04/25 10:07:05;;;;;;;4.35;1.75;;;;;;;23.38;18.50;101487.95;1542503;93;21210;-87
2021/04/25 10:09:31;;;;;;;2.90;1.30;;;;;;;22.98;18.46;101493.63;1523256;93;21719;-87
2021/04/25 10:12:00;;;;;;;2.10;1.15;;;;;;;21.82;19.33;101497.09;1542433;93;21252;-87
2021/04/25 10:14:30;;;;;;;5.30;1.77;;;;;;;21.21;20.01;101498.82;1542299;93;21668;-87
2021/04/25 10:16:57;;;;;;;3.27;1.20;;;;;;;21.17;20.38;101495.63;1542562;93;21222;-86
2021/04/25 10:19:24;;;;;;;2.62;0.98;;;;;;;21.35;20.49;101489.16;1542440;93;21235;-86
2021/04/25 10:21:52;;;;;;;3.90;1.45;;;;;;;21.65;19.89;101489.02;1542344;93;21533;-86
2021/04/25 10:27:15;;;;;;;2.90;1.50;;;;;;;21.36;20.12;101488.62;1533233;92;21653;-86
2021/04/25 10:29:46;;;;;;;3.67;1.52;;;;;;;20.78;19.90;101488.25;1540039;88;21270;-88
2021/04/25 10:32:14;;;;;;;4.17;1.42;;;;;;;21.30;20.11;101483.25;1608738;87;21191;-85
2021/04/25 10:34:42;;;;;;;5.00;1.27;;;;;;;20.40;20.66;101491.75;1588765;90;21230;-86
2021/04/25 10:37:10;;;;;;;3.10;1.50;;;;;;;20.16;20.91;101488.64;1643571;87;21183;-84
2021/04/25 10:39:55;;;;;;;3.17;1.20;;;;;;;19.71;21.01;101488.91;1622014;87;21298;-84
2021/04/25 10:42:26;;;;;;;2.70;1.27;;;;;;;19.59;21.32;101487.14;1643124;87;21195;-84
2021/04/25 10:45:04;;;;;;;8.03;1.40;;;;;;;19.22;22.85;101483.36;1643202;87;21683;-85
2021/04/25 10:47:35;;;;;;;2.80;1.30;;;;;;;19.39;22.15;101484.20;1643350;87;21237;-87
2021/04/25 10:50:17;;;;;;;2.35;1.42;;;;;;;19.56;22.05;101481.75;1643248;87;21995;-87
2021/04/25 10:52:47;;;;;;;2.10;1.17;;;;;;;19.64;20.97;101471.47;1643503;87;21202;-87
2021/04/25 10:55:20;;;;;;;1.70;1.15;;;;;;;19.34;21.86;101471.42;1643145;87;21135;-86
2021/04/25 10:58:00;;;;;;;15.20;2.50;;;;;;;19.19;23.10;101467.00;1643358;87;21233;-87
2021/04/25 11:00:39;;;;;;;9.63;2.12;;;;;;;19.64;22.56;101473.40;1643122;87;21254;-86
2021/04/25 11:03:16;;;;;;;10.10;3.60;;;;;;;20.06;21.91;101460.11;1643329;87;21936;-86
2021/04/25 11:05:45;;;;;;;10.95;2.50;;;;;;;19.85;22.29;101465.12;1643157;87;21290;-85
2021/04/25 11:08:32;;;;;;;8.03;1.60;;;;;;;19.85;22.06;101477.42;1643285;87;21174;-85
2021/04/25 11:11:09;;;;;;;5.95;1.70;;;;;;;20.10;21.90;101458.94;1696066;84;21222;-85
2021/04/25 11:13:46;;;;;;;6.55;2.30;;;;;;;20.47;21.85;101453.83;1666455;86;21108;-86
2021/04/25 11:16:26;;;;;;;5.53;2.10;;;;;;;20.59;21.39;101446.50;1666530;86;21734;-86
2021/04/25 11:19:06;;;;;;;5.47;2.25;;;;;;;20.03;21.42;101453.03;1666270;86;21175;-84
2021/04/25 11:21:49;;;;;;;3.37;1.60;;;;;;;19.73;21.92;101456.58;1666418;86;21195;-84
2021/04/25 11:24:24;;;;;;;4.33;1.72;;;;;;;19.62;21.77;101464.14;1666259;86;21183;-84
2021/04/25 11:26:53;;;;;;;8.45;1.50;;;;;;;18.82;22.17;101458.23;1666292;86;21857;-84
2021/04/25 11:29:30;;;;;;;4.37;1.57;;;;;;;18.99;22.69;101468.66;1673810;83;21998;-85
2021/04/25 11:31:59;;;;;;;4.80;1.72;;;;;;;19.36;22.22;101452.81;1671569;85;21172;-85